sensor_id;sensor_type;location;lat;lon;timestamp;pressure;altitude;pressure_sealevel;temperature;humidity
76337;BME280;65157;50.082;18.178;2022-11-22T00:00:19;98220.57;;;1.18;82.31
76337;BME280;65157;50.082;18.178;2022-11-22T00:03:06;98214.76;;;1.13;82.63
76337;BME280;65157;50.082;18.178;2022-11-22T00:05:33;98219.71;;;1.09;82.50
76337;BME280;65157;50.082;18.178;2022-11-22T00:08:00;98226.44;;;1.11;82.50
76337;BME280;65157;50.082;18.178;2022-11-22T00:10:26;98229.02;;;1.12;82.41
76337;BME280;65157;50.082;18.178;2022-11-22T00:12:53;98228.52;;;1.11;82.51
76337;BME280;65157;50.082;18.178;2022-11-22T00:15:20;98227.29;;;1.12;82.21
76337;BME280;65157;50.082;18.178;2022-11-22T00:17:46;98230.77;;;1.11;82.34
76337;BME280;65157;50.082;18.178;2022-11-22T00:20:13;98224.64;;;1.06;82.33
76337;BME280;65157;50.082;18.178;2022-11-22T00:22:40;98215.93;;;0.99;82.36
76337;BME280;65157;50.082;18.178;2022-11-22T00:25:07;98212.35;;;0.87;82.38
76337;BME280;65157;50.082;18.178;2022-11-22T00:27:34;98219.92;;;0.74;82.60
76337;BME280;65157;50.082;18.178;2022-11-22T00:30:01;98222.86;;;0.65;82.95
76337;BME280;65157;50.082;18.178;2022-11-22T00:32:27;98227.54;;;0.57;83.10
76337;BME280;65157;50.082;18.178;2022-11-22T00:34:54;98227.03;;;0.46;83.36
76337;BME280;65157;50.082;18.178;2022-11-22T00:37:20;98224.17;;;0.42;83.35
76337;BME280;65157;50.082;18.178;2022-11-22T00:39:47;98231.07;;;0.44;83.21
76337;BME280;65157;50.082;18.178;2022-11-22T00:42:14;98233.63;;;0.46;83.41
76337;BME280;65157;50.082;18.178;2022-11-22T00:44:40;98232.54;;;0.40;83.76
76337;BME280;65157;50.082;18.178;2022-11-22T00:47:07;98232.58;;;0.28;84.18
76337;BME280;65157;50.082;18.178;2022-11-22T00:49:34;98229.67;;;0.16;83.96
76337;BME280;65157;50.082;18.178;2022-11-22T00:52:00;98229.72;;;0.13;83.99
76337;BME280;65157;50.082;18.178;2022-11-22T00:54:27;98231.16;;;0.19;84.28
76337;BME280;65157;50.082;18.178;2022-11-22T00:56:54;98234.20;;;0.25;83.93
76337;BME280;65157;50.082;18.178;2022-11-22T00:59:20;98232.48;;;0.23;83.95
76337;BME280;65157;50.082;18.178;2022-11-22T01:01:47;98231.11;;;0.22;84.20
76337;BME280;65157;50.082;18.178;2022-11-22T01:04:13;98218.86;;;0.28;84.05
76337;BME280;65157;50.082;18.178;2022-11-22T01:06:40;98203.61;;;0.37;84.13
76337;BME280;65157;50.082;18.178;2022-11-22T01:09:07;98188.06;;;0.42;84.19
76337;BME280;65157;50.082;18.178;2022-11-22T01:11:33;98192.66;;;0.46;83.92
76337;BME280;65157;50.082;18.178;2022-11-22T01:14:00;98188.06;;;0.51;83.91
76337;BME280;65157;50.082;18.178;2022-11-22T01:16:27;98182.05;;;0.56;83.74
76337;BME280;65157;50.082;18.178;2022-11-22T01:18:53;98176.23;;;0.60;83.78
76337;BME280;65157;50.082;18.178;2022-11-22T01:21:20;98180.17;;;0.64;83.81
76337;BME280;65157;50.082;18.178;2022-11-22T01:23:47;98178.77;;;0.64;83.78
76337;BME280;65157;50.082;18.178;2022-11-22T01:26:13;98173.95;;;0.62;83.77
76337;BME280;65157;50.082;18.178;2022-11-22T01:28:40;98178.77;;;0.65;84.02
76337;BME280;65157;50.082;18.178;2022-11-22T01:31:06;98179.04;;;0.69;83.67
76337;BME280;65157;50.082;18.178;2022-11-22T01:33:33;98172.14;;;0.74;83.68
76337;BME280;65157;50.082;18.178;2022-11-22T01:35:59;98167.46;;;0.74;83.56
76337;BME280;65157;50.082;18.178;2022-11-22T01:38:26;98162.41;;;0.74;83.59
76337;BME280;65157;50.082;18.178;2022-11-22T01:40:53;98165.30;;;0.78;83.66
76337;BME280;65157;50.082;18.178;2022-11-22T01:43:23;98170.70;;;0.78;83.75
76337;BME280;65157;50.082;18.178;2022-11-22T01:45:59;98172.67;;;0.74;83.51
76337;BME280;65157;50.082;18.178;2022-11-22T01:50:58;98178.13;;;0.70;83.50
76337;BME280;65157;50.082;18.178;2022-11-22T01:53:33;98169.23;;;0.73;83.41
76337;BME280;65157;50.082;18.178;2022-11-22T01:56:04;98166.70;;;0.77;83.45
76337;BME280;65157;50.082;18.178;2022-11-22T01:58:34;98161.68;;;0.76;83.42
76337;BME280;65157;50.082;18.178;2022-11-22T02:01:02;98158.19;;;0.78;83.61
76337;BME280;65157;50.082;18.178;2022-11-22T02:03:31;98163.00;;;0.80;83.49
76337;BME280;65157;50.082;18.178;2022-11-22T02:05:59;98167.68;;;0.80;83.41
76337;BME280;65157;50.082;18.178;2022-11-22T02:08:44;98169.26;;;0.79;83.51
76337;BME280;65157;50.082;18.178;2022-11-22T02:11:16;98167.30;;;0.82;83.51
76337;BME280;65157;50.082;18.178;2022-11-22T02:13:44;98167.25;;;0.84;83.48
76337;BME280;65157;50.082;18.178;2022-11-22T02:16:11;98165.20;;;0.82;83.24
76337;BME280;65157;50.082;18.178;2022-11-22T02:18:38;98168.20;;;0.81;83.26
76337;BME280;65157;50.082;18.178;2022-11-22T02:21:07;98165.30;;;0.77;83.49
76337;BME280;65157;50.082;18.178;2022-11-22T02:26:19;98159.37;;;0.70;83.43
76337;BME280;65157;50.082;18.178;2022-11-22T02:28:46;98150.80;;;0.73;83.46
76337;BME280;65157;50.082;18.178;2022-11-22T02:31:34;98143.31;;;0.74;83.31
76337;BME280;65157;50.082;18.178;2022-11-22T02:34:01;98139.73;;;0.80;83.05
76337;BME280;65157;50.082;18.178;2022-11-22T02:36:29;98136.27;;;0.80;83.11
76337;BME280;65157;50.082;18.178;2022-11-22T02:39:00;98134.41;;;0.77;83.04
76337;BME280;65157;50.082;18.178;2022-11-22T02:41:26;98129.14;;;0.72;83.24
76337;BME280;65157;50.082;18.178;2022-11-22T02:43:53;98124.98;;;0.63;83.05
76337;BME280;65157;50.082;18.178;2022-11-22T02:46:20;98122.15;;;0.57;83.36
76337;BME280;65157;50.082;18.178;2022-11-22T02:48:48;98123.36;;;0.57;83.41
76337;BME280;65157;50.082;18.178;2022-11-22T02:51:16;98117.67;;;0.55;83.34
76337;BME280;65157;50.082;18.178;2022-11-22T02:53:46;98117.34;;;0.54;83.27
76337;BME280;65157;50.082;18.178;2022-11-22T02:56:13;98116.11;;;0.55;83.32
76337;BME280;65157;50.082;18.178;2022-11-22T02:58:40;98114.53;;;0.56;83.40
76337;BME280;65157;50.082;18.178;2022-11-22T03:01:07;98115.96;;;0.54;83.32
76337;BME280;65157;50.082;18.178;2022-11-22T03:03:33;98115.41;;;0.47;83.32
76337;BME280;65157;50.082;18.178;2022-11-22T03:06:00;98108.90;;;0.42;83.39
76337;BME280;65157;50.082;18.178;2022-11-22T03:08:28;98101.16;;;0.39;83.49
76337;BME280;65157;50.082;18.178;2022-11-22T03:10:57;98104.34;;;0.36;83.54
76337;BME280;65157;50.082;18.178;2022-11-22T03:13:25;98102.45;;;0.36;83.38
76337;BME280;65157;50.082;18.178;2022-11-22T03:15:51;98103.64;;;0.36;83.58
76337;BME280;65157;50.082;18.178;2022-11-22T03:18:18;98104.33;;;0.37;83.74
76337;BME280;65157;50.082;18.178;2022-11-22T03:20:45;98107.58;;;0.39;83.79
76337;BME280;65157;50.082;18.178;2022-11-22T03:23:11;98105.66;;;0.39;83.57
76337;BME280;65157;50.082;18.178;2022-11-22T03:25:38;98101.84;;;0.40;83.57
76337;BME280;65157;50.082;18.178;2022-11-22T03:28:05;98098.48;;;0.43;83.73
76337;BME280;65157;50.082;18.178;2022-11-22T03:30:33;98104.52;;;0.45;83.64
76337;BME280;65157;50.082;18.178;2022-11-22T03:32:59;98105.24;;;0.43;83.59
76337;BME280;65157;50.082;18.178;2022-11-22T03:35:26;98109.91;;;0.44;83.31
76337;BME280;65157;50.082;18.178;2022-11-22T03:37:52;98108.40;;;0.42;83.47
76337;BME280;65157;50.082;18.178;2022-11-22T03:40:19;98107.98;;;0.45;83.51
76337;BME280;65157;50.082;18.178;2022-11-22T03:42:46;98104.62;;;0.48;83.31
76337;BME280;65157;50.082;18.178;2022-11-22T03:45:13;98108.08;;;0.49;83.32
76337;BME280;65157;50.082;18.178;2022-11-22T03:47:39;98111.38;;;0.49;83.13
76337;BME280;65157;50.082;18.178;2022-11-22T03:50:06;98110.29;;;0.51;82.89
76337;BME280;65157;50.082;18.178;2022-11-22T03:52:33;98107.68;;;0.50;82.84
76337;BME280;65157;50.082;18.178;2022-11-22T03:55:00;98107.91;;;0.48;83.00
76337;BME280;65157;50.082;18.178;2022-11-22T03:57:26;98105.06;;;0.44;82.90
76337;BME280;65157;50.082;18.178;2022-11-22T03:59:53;98113.45;;;0.32;82.70
76337;BME280;65157;50.082;18.178;2022-11-22T04:02:19;98117.61;;;0.24;82.90
76337;BME280;65157;50.082;18.178;2022-11-22T04:04:46;98120.13;;;0.19;82.59
76337;BME280;65157;50.082;18.178;2022-11-22T04:07:13;98113.83;;;0.13;82.68
76337;BME280;65157;50.082;18.178;2022-11-22T04:09:40;98112.90;;;0.07;82.61
76337;BME280;65157;50.082;18.178;2022-11-22T04:12:06;98112.42;;;0.04;82.71
76337;BME280;65157;50.082;18.178;2022-11-22T04:14:33;98116.11;;;0.02;82.61
76337;BME280;65157;50.082;18.178;2022-11-22T04:17:19;98112.55;;;-0.02;82.78
76337;BME280;65157;50.082;18.178;2022-11-22T04:20:07;98114.86;;;-0.06;82.82
76337;BME280;65157;50.082;18.178;2022-11-22T04:23:05;98121.22;;;-0.13;82.57
76337;BME280;65157;50.082;18.178;2022-11-22T04:25:33;98124.72;;;-0.23;82.60
76337;BME280;65157;50.082;18.178;2022-11-22T04:28:00;98121.20;;;-0.30;82.48
76337;BME280;65157;50.082;18.178;2022-11-22T04:30:27;98114.14;;;-0.33;82.70
76337;BME280;65157;50.082;18.178;2022-11-22T04:33:13;98111.61;;;-0.27;83.04
76337;BME280;65157;50.082;18.178;2022-11-22T04:35:41;98114.80;;;-0.21;83.11
76337;BME280;65157;50.082;18.178;2022-11-22T04:38:09;98113.89;;;-0.19;82.97
76337;BME280;65157;50.082;18.178;2022-11-22T04:40:37;98107.91;;;-0.23;82.83
76337;BME280;65157;50.082;18.178;2022-11-22T04:43:04;98104.30;;;-0.26;82.77
76337;BME280;65157;50.082;18.178;2022-11-22T04:45:50;98096.88;;;-0.28;83.06
76337;BME280;65157;50.082;18.178;2022-11-22T04:48:18;98092.39;;;-0.29;82.89
76337;BME280;65157;50.082;18.178;2022-11-22T04:50:44;98087.72;;;-0.29;82.82
76337;BME280;65157;50.082;18.178;2022-11-22T04:53:30;98084.58;;;-0.28;82.75
76337;BME280;65157;50.082;18.178;2022-11-22T04:55:57;98086.29;;;-0.26;82.97
76337;BME280;65157;50.082;18.178;2022-11-22T04:58:23;98080.33;;;-0.23;83.05
76337;BME280;65157;50.082;18.178;2022-11-22T05:00:50;98078.56;;;-0.22;83.04
76337;BME280;65157;50.082;18.178;2022-11-22T05:03:17;98076.25;;;-0.18;82.96
76337;BME280;65157;50.082;18.178;2022-11-22T05:05:44;98069.62;;;-0.16;83.00
76337;BME280;65157;50.082;18.178;2022-11-22T05:08:11;98065.65;;;-0.17;83.00
76337;BME280;65157;50.082;18.178;2022-11-22T05:10:38;98064.54;;;-0.13;82.88
76337;BME280;65157;50.082;18.178;2022-11-22T05:13:27;98066.52;;;-0.08;82.66
76337;BME280;65157;50.082;18.178;2022-11-22T05:15:55;98078.17;;;-0.10;82.24
76337;BME280;65157;50.082;18.178;2022-11-22T05:18:22;98083.33;;;-0.16;82.23
76337;BME280;65157;50.082;18.178;2022-11-22T05:20:49;98088.98;;;-0.22;82.17
76337;BME280;65157;50.082;18.178;2022-11-22T05:23:16;98087.20;;;-0.29;82.26
76337;BME280;65157;50.082;18.178;2022-11-22T05:26:03;98085.72;;;-0.34;82.55
76337;BME280;65157;50.082;18.178;2022-11-22T05:28:32;98089.79;;;-0.38;82.38
76337;BME280;65157;50.082;18.178;2022-11-22T05:30:59;98091.11;;;-0.45;82.21
76337;BME280;65157;50.082;18.178;2022-11-22T05:33:30;98095.56;;;-0.52;82.23
76337;BME280;65157;50.082;18.178;2022-11-22T05:35:57;98086.66;;;-0.58;82.27
76337;BME280;65157;50.082;18.178;2022-11-22T05:38:25;98090.69;;;-0.61;82.13
76337;BME280;65157;50.082;18.178;2022-11-22T05:40:52;98096.59;;;-0.61;82.36
76337;BME280;65157;50.082;18.178;2022-11-22T05:43:18;98100.27;;;-0.64;82.22
76337;BME280;65157;50.082;18.178;2022-11-22T05:45:45;98100.70;;;-0.69;82.32
76337;BME280;65157;50.082;18.178;2022-11-22T05:48:12;98104.52;;;-0.71;82.74
76337;BME280;65157;50.082;18.178;2022-11-22T05:50:38;98110.29;;;-0.73;82.59
76337;BME280;65157;50.082;18.178;2022-11-22T05:53:05;98113.25;;;-0.74;82.66
76337;BME280;65157;50.082;18.178;2022-11-22T05:55:31;98127.14;;;-0.76;82.56
76337;BME280;65157;50.082;18.178;2022-11-22T05:57:59;98130.67;;;-0.81;82.59
76337;BME280;65157;50.082;18.178;2022-11-22T06:00:29;98136.66;;;-0.87;82.75
76337;BME280;65157;50.082;18.178;2022-11-22T06:03:03;98140.23;;;-0.95;82.75
76337;BME280;65157;50.082;18.178;2022-11-22T06:05:30;98149.44;;;-1.08;82.85
76337;BME280;65157;50.082;18.178;2022-11-22T06:07:59;98151.98;;;-1.17;83.16
76337;BME280;65157;50.082;18.178;2022-11-22T06:10:28;98142.08;;;-1.28;83.24
76337;BME280;65157;50.082;18.178;2022-11-22T06:12:54;98135.39;;;-1.33;83.59
76337;BME280;65157;50.082;18.178;2022-11-22T06:15:21;98131.48;;;-1.37;83.61
76337;BME280;65157;50.082;18.178;2022-11-22T06:17:48;98135.07;;;-1.34;83.55
76337;BME280;65157;50.082;18.178;2022-11-22T06:20:14;98141.89;;;-1.26;83.73
76337;BME280;65157;50.082;18.178;2022-11-22T06:22:41;98139.86;;;-1.30;83.53
76337;BME280;65157;50.082;18.178;2022-11-22T06:25:08;98143.58;;;-1.37;83.60
76337;BME280;65157;50.082;18.178;2022-11-22T06:27:35;98140.09;;;-1.35;83.60
76337;BME280;65157;50.082;18.178;2022-11-22T06:30:02;98142.05;;;-1.39;83.49
76337;BME280;65157;50.082;18.178;2022-11-22T06:32:32;98143.19;;;-1.46;83.57
76337;BME280;65157;50.082;18.178;2022-11-22T06:35:00;98141.95;;;-1.45;83.74
76337;BME280;65157;50.082;18.178;2022-11-22T06:37:28;98135.77;;;-1.34;83.90
76337;BME280;65157;50.082;18.178;2022-11-22T06:39:55;98137.17;;;-1.23;83.69
76337;BME280;65157;50.082;18.178;2022-11-22T06:42:21;98126.89;;;-1.18;83.92
76337;BME280;65157;50.082;18.178;2022-11-22T06:44:48;98125.44;;;-1.13;83.93
76337;BME280;65157;50.082;18.178;2022-11-22T06:47:15;98124.85;;;-1.08;83.86
76337;BME280;65157;50.082;18.178;2022-11-22T06:49:43;98116.23;;;-1.10;83.83
76337;BME280;65157;50.082;18.178;2022-11-22T06:52:11;98131.77;;;-1.08;83.57
76337;BME280;65157;50.082;18.178;2022-11-22T06:54:37;98138.02;;;-1.10;83.59
76337;BME280;65157;50.082;18.178;2022-11-22T06:57:04;98137.66;;;-1.07;83.72
76337;BME280;65157;50.082;18.178;2022-11-22T06:59:30;98133.10;;;-1.04;83.62
76337;BME280;65157;50.082;18.178;2022-11-22T07:01:57;98129.08;;;-1.02;83.56
76337;BME280;65157;50.082;18.178;2022-11-22T07:04:23;98121.31;;;-1.03;83.67
76337;BME280;65157;50.082;18.178;2022-11-22T07:06:50;98129.55;;;-0.97;83.83
76337;BME280;65157;50.082;18.178;2022-11-22T07:09:17;98127.26;;;-0.96;83.65
76337;BME280;65157;50.082;18.178;2022-11-22T07:11:43;98132.83;;;-0.96;83.85
76337;BME280;65157;50.082;18.178;2022-11-22T07:14:10;98129.80;;;-0.91;84.15
76337;BME280;65157;50.082;18.178;2022-11-22T07:16:37;98137.55;;;-0.87;83.72
76337;BME280;65157;50.082;18.178;2022-11-22T07:19:04;98142.33;;;-0.83;83.94
76337;BME280;65157;50.082;18.178;2022-11-22T07:21:31;98141.73;;;-0.78;83.74
76337;BME280;65157;50.082;18.178;2022-11-22T07:23:58;98139.08;;;-0.74;83.80
76337;BME280;65157;50.082;18.178;2022-11-22T07:26:25;98144.85;;;-0.67;83.64
76337;BME280;65157;50.082;18.178;2022-11-22T07:28:52;98147.30;;;-0.59;83.58
76337;BME280;65157;50.082;18.178;2022-11-22T07:31:19;98153.13;;;-0.54;83.33
76337;BME280;65157;50.082;18.178;2022-11-22T07:33:47;98145.83;;;-0.52;83.49
76337;BME280;65157;50.082;18.178;2022-11-22T07:36:16;98141.80;;;-0.49;83.35
76337;BME280;65157;50.082;18.178;2022-11-22T07:38:43;98131.84;;;-0.44;83.41
76337;BME280;65157;50.082;18.178;2022-11-22T07:41:10;98136.56;;;-0.47;83.31
76337;BME280;65157;50.082;18.178;2022-11-22T07:43:37;98139.67;;;-0.47;83.44
76337;BME280;65157;50.082;18.178;2022-11-22T07:46:06;98134.89;;;-0.40;83.57
76337;BME280;65157;50.082;18.178;2022-11-22T07:48:33;98134.08;;;-0.33;83.21
76337;BME280;65157;50.082;18.178;2022-11-22T07:51:07;98137.33;;;-0.31;83.15
76337;BME280;65157;50.082;18.178;2022-11-22T07:53:34;98137.87;;;-0.32;83.16
76337;BME280;65157;50.082;18.178;2022-11-22T07:56:02;98133.85;;;-0.40;83.08
76337;BME280;65157;50.082;18.178;2022-11-22T07:58:29;98133.08;;;-0.45;83.26
76337;BME280;65157;50.082;18.178;2022-11-22T08:00:55;98129.60;;;-0.45;83.09
76337;BME280;65157;50.082;18.178;2022-11-22T08:03:22;98129.11;;;-0.47;83.06
76337;BME280;65157;50.082;18.178;2022-11-22T08:05:49;98128.77;;;-0.47;83.29
76337;BME280;65157;50.082;18.178;2022-11-22T08:08:15;98125.66;;;-0.37;83.37
76337;BME280;65157;50.082;18.178;2022-11-22T08:10:42;98131.48;;;-0.33;83.36
76337;BME280;65157;50.082;18.178;2022-11-22T08:13:09;98126.36;;;-0.38;83.46
76337;BME280;65157;50.082;18.178;2022-11-22T08:15:36;98123.60;;;-0.38;83.48
76337;BME280;65157;50.082;18.178;2022-11-22T08:18:02;98127.06;;;-0.38;83.55
76337;BME280;65157;50.082;18.178;2022-11-22T08:20:29;98128.34;;;-0.42;83.55
76337;BME280;65157;50.082;18.178;2022-11-22T08:22:55;98130.02;;;-0.39;83.65
76337;BME280;65157;50.082;18.178;2022-11-22T08:25:22;98123.09;;;-0.30;83.74
76337;BME280;65157;50.082;18.178;2022-11-22T08:27:48;98118.98;;;-0.23;83.41
76337;BME280;65157;50.082;18.178;2022-11-22T08:30:15;98117.34;;;-0.18;83.74
76337;BME280;65157;50.082;18.178;2022-11-22T08:32:42;98112.97;;;-0.16;83.51
76337;BME280;65157;50.082;18.178;2022-11-22T08:35:08;98116.82;;;-0.18;83.49
76337;BME280;65157;50.082;18.178;2022-11-22T08:37:36;98114.56;;;-0.17;83.34
76337;BME280;65157;50.082;18.178;2022-11-22T08:40:03;98113.14;;;-0.16;83.33
76337;BME280;65157;50.082;18.178;2022-11-22T08:42:31;98115.13;;;-0.11;83.30
76337;BME280;65157;50.082;18.178;2022-11-22T08:44:57;98117.09;;;-0.05;83.20
76337;BME280;65157;50.082;18.178;2022-11-22T08:47:24;98120.83;;;0.00;83.32
76337;BME280;65157;50.082;18.178;2022-11-22T08:49:50;98120.05;;;0.05;83.06
76337;BME280;65157;50.082;18.178;2022-11-22T08:52:17;98118.25;;;0.08;83.23
76337;BME280;65157;50.082;18.178;2022-11-22T08:54:43;98119.65;;;0.08;83.29
76337;BME280;65157;50.082;18.178;2022-11-22T08:57:10;98116.55;;;0.06;83.23
76337;BME280;65157;50.082;18.178;2022-11-22T08:59:37;98115.75;;;0.03;82.98
76337;BME280;65157;50.082;18.178;2022-11-22T09:02:03;98114.70;;;0.03;82.87
76337;BME280;65157;50.082;18.178;2022-11-22T09:04:30;98115.48;;;0.08;82.65
76337;BME280;65157;50.082;18.178;2022-11-22T09:06:57;98110.88;;;0.13;82.90
76337;BME280;65157;50.082;18.178;2022-11-22T09:09:26;98111.41;;;0.21;82.81
76337;BME280;65157;50.082;18.178;2022-11-22T09:11:53;98106.13;;;0.25;82.70
76337;BME280;65157;50.082;18.178;2022-11-22T09:14:20;98106.39;;;0.30;82.55
76337;BME280;65157;50.082;18.178;2022-11-22T09:16:47;98108.34;;;0.27;82.66
76337;BME280;65157;50.082;18.178;2022-11-22T09:19:13;98107.59;;;0.21;82.96
76337;BME280;65157;50.082;18.178;2022-11-22T09:21:41;98101.98;;;0.15;83.51
76337;BME280;65157;50.082;18.178;2022-11-22T09:24:08;98106.84;;;0.15;83.69
76337;BME280;65157;50.082;18.178;2022-11-22T09:26:36;98106.20;;;0.22;83.81
76337;BME280;65157;50.082;18.178;2022-11-22T09:29:04;98107.21;;;0.23;83.48
76337;BME280;65157;50.082;18.178;2022-11-22T09:31:31;98109.50;;;0.21;83.59
76337;BME280;65157;50.082;18.178;2022-11-22T09:33:58;98107.96;;;0.20;84.05
76337;BME280;65157;50.082;18.178;2022-11-22T09:36:25;98110.32;;;0.24;83.81
76337;BME280;65157;50.082;18.178;2022-11-22T09:38:52;98107.76;;;0.22;83.89
76337;BME280;65157;50.082;18.178;2022-11-22T09:41:27;98105.90;;;0.19;84.17
76337;BME280;65157;50.082;18.178;2022-11-22T09:44:03;98107.94;;;0.22;84.29
76337;BME280;65157;50.082;18.178;2022-11-22T09:46:49;98105.19;;;0.29;84.72
76337;BME280;65157;50.082;18.178;2022-11-22T09:54:48;98104.02;;;0.44;84.23
76337;BME280;65157;50.082;18.178;2022-11-22T09:57:29;98107.26;;;0.38;84.22
76337;BME280;65157;50.082;18.178;2022-11-22T10:00:04;98104.25;;;0.41;84.41
76337;BME280;65157;50.082;18.178;2022-11-22T10:02:46;98101.45;;;0.42;84.55
76337;BME280;65157;50.082;18.178;2022-11-22T10:05:19;98100.33;;;0.46;84.55
76337;BME280;65157;50.082;18.178;2022-11-22T10:07:58;98101.04;;;0.45;84.44
76337;BME280;65157;50.082;18.178;2022-11-22T10:10:33;98103.54;;;0.50;84.56
76337;BME280;65157;50.082;18.178;2022-11-22T10:16:09;98096.23;;;0.60;84.60
76337;BME280;65157;50.082;18.178;2022-11-22T10:21:13;98088.98;;;0.57;84.11
76337;BME280;65157;50.082;18.178;2022-11-22T10:23:41;98086.35;;;0.58;84.51
76337;BME280;65157;50.082;18.178;2022-11-22T10:26:28;98091.78;;;0.56;84.47
76337;BME280;65157;50.082;18.178;2022-11-22T10:32:01;98089.24;;;0.53;84.66
76337;BME280;65157;50.082;18.178;2022-11-22T10:37:35;98085.34;;;0.49;84.52
76337;BME280;65157;50.082;18.178;2022-11-22T10:42:44;98092.39;;;0.52;84.56
76337;BME280;65157;50.082;18.178;2022-11-22T10:48:19;98094.27;;;0.53;85.01
76337;BME280;65157;50.082;18.178;2022-11-22T10:51:19;98085.88;;;0.56;84.90
76337;BME280;65157;50.082;18.178;2022-11-22T10:54:44;98087.89;;;0.61;84.97
76337;BME280;65157;50.082;18.178;2022-11-22T10:59:53;98074.76;;;0.65;84.78
76337;BME280;65157;50.082;18.178;2022-11-22T11:02:54;98070.14;;;0.70;84.64
76337;BME280;65157;50.082;18.178;2022-11-22T11:05:54;98067.05;;;0.76;84.85
76337;BME280;65157;50.082;18.178;2022-11-22T11:08:51;98063.48;;;0.80;84.89
76337;BME280;65157;50.082;18.178;2022-11-22T11:11:20;98064.15;;;0.81;85.03
76337;BME280;65157;50.082;18.178;2022-11-22T11:13:54;98066.47;;;0.86;85.17
76337;BME280;65157;50.082;18.178;2022-11-22T11:16:25;98059.56;;;0.92;85.12
76337;BME280;65157;50.082;18.178;2022-11-22T11:18:54;98056.40;;;1.00;85.29
76337;BME280;65157;50.082;18.178;2022-11-22T11:21:23;98056.52;;;1.10;85.08
76337;BME280;65157;50.082;18.178;2022-11-22T11:23:51;98056.90;;;1.17;84.96
76337;BME280;65157;50.082;18.178;2022-11-22T11:28:47;98058.92;;;1.27;85.18
76337;BME280;65157;50.082;18.178;2022-11-22T11:31:15;98056.77;;;1.29;84.99
76337;BME280;65157;50.082;18.178;2022-11-22T11:33:45;98061.95;;;1.30;84.88
76337;BME280;65157;50.082;18.178;2022-11-22T11:36:21;98057.85;;;1.34;84.92
76337;BME280;65157;50.082;18.178;2022-11-22T11:38:55;98062.70;;;1.42;84.81
76337;BME280;65157;50.082;18.178;2022-11-22T11:41:30;98057.61;;;1.44;84.85
76337;BME280;65157;50.082;18.178;2022-11-22T11:44:03;98058.86;;;1.50;84.77
76337;BME280;65157;50.082;18.178;2022-11-22T11:49:13;98055.13;;;1.53;84.92
76337;BME280;65157;50.082;18.178;2022-11-22T11:51:41;98053.86;;;1.55;84.96
76337;BME280;65157;50.082;18.178;2022-11-22T11:54:13;98052.80;;;1.55;84.90
76337;BME280;65157;50.082;18.178;2022-11-22T11:56:51;98053.98;;;1.57;85.13
76337;BME280;65157;50.082;18.178;2022-11-22T12:02:22;98054.16;;;1.77;85.26
76337;BME280;65157;50.082;18.178;2022-11-22T12:05:05;98053.98;;;1.83;85.33
76337;BME280;65157;50.082;18.178;2022-11-22T12:10:00;98053.98;;;1.96;84.99
76337;BME280;65157;50.082;18.178;2022-11-22T12:12:46;98050.14;;;2.03;85.02
76337;BME280;65157;50.082;18.178;2022-11-22T12:21:02;98052.36;;;2.29;84.66
76337;BME280;65157;50.082;18.178;2022-11-22T12:23:43;98046.07;;;2.36;84.55
76337;BME280;65157;50.082;18.178;2022-11-22T12:26:13;98047.86;;;2.46;84.26
76337;BME280;65157;50.082;18.178;2022-11-22T12:28:42;98048.15;;;2.54;84.20
76337;BME280;65157;50.082;18.178;2022-11-22T12:31:30;98042.11;;;2.58;84.24
76337;BME280;65157;50.082;18.178;2022-11-22T12:34:18;98043.58;;;2.62;84.01
76337;BME280;65157;50.082;18.178;2022-11-22T12:37:18;98036.29;;;2.66;83.77
76337;BME280;65157;50.082;18.178;2022-11-22T12:39:47;98041.31;;;2.73;83.73
76337;BME280;65157;50.082;18.178;2022-11-22T12:42:20;98042.84;;;2.74;83.82
76337;BME280;65157;50.082;18.178;2022-11-22T12:44:53;98040.93;;;2.74;83.75
76337;BME280;65157;50.082;18.178;2022-11-22T12:47:25;98039.96;;;2.71;83.95
76337;BME280;65157;50.082;18.178;2022-11-22T12:50:00;98045.95;;;2.75;83.83
76337;BME280;65157;50.082;18.178;2022-11-22T12:52:30;98045.39;;;2.76;83.56
76337;BME280;65157;50.082;18.178;2022-11-22T12:57:42;98040.88;;;2.82;83.64
76337;BME280;65157;50.082;18.178;2022-11-22T13:00:16;98034.76;;;2.88;83.43
76337;BME280;65157;50.082;18.178;2022-11-22T13:02:45;98034.06;;;2.93;83.64
76337;BME280;65157;50.082;18.178;2022-11-22T13:05:22;98033.09;;;2.96;83.62
76337;BME280;65157;50.082;18.178;2022-11-22T13:10:42;98018.57;;;2.93;83.61
76337;BME280;65157;50.082;18.178;2022-11-22T13:13:20;98015.94;;;2.94;83.71
76337;BME280;65157;50.082;18.178;2022-11-22T13:15:50;98012.28;;;2.99;83.74
76337;BME280;65157;50.082;18.178;2022-11-22T13:18:26;98007.17;;;3.06;83.37
76337;BME280;65157;50.082;18.178;2022-11-22T13:21:37;98013.02;;;3.08;83.37
76337;BME280;65157;50.082;18.178;2022-11-22T13:29:29;98017.48;;;3.05;83.74
76337;BME280;65157;50.082;18.178;2022-11-22T13:34:31;98008.25;;;3.05;83.64
76337;BME280;65157;50.082;18.178;2022-11-22T13:37:15;98012.45;;;3.05;83.58
76337;BME280;65157;50.082;18.178;2022-11-22T13:39:44;98001.92;;;3.07;83.35
76337;BME280;65157;50.082;18.178;2022-11-22T13:42:22;98008.21;;;3.06;83.41
76337;BME280;65157;50.082;18.178;2022-11-22T13:45:05;98000.61;;;3.09;83.46
76337;BME280;65157;50.082;18.178;2022-11-22T13:47:33;97998.95;;;3.07;83.49
76337;BME280;65157;50.082;18.178;2022-11-22T13:50:00;97996.75;;;3.05;83.60
76337;BME280;65157;50.082;18.178;2022-11-22T13:52:29;97994.43;;;3.06;83.36
76337;BME280;65157;50.082;18.178;2022-11-22T13:55:31;97995.38;;;3.10;83.30
76337;BME280;65157;50.082;18.178;2022-11-22T14:09:43;98000.35;;;3.18;83.59
76337;BME280;65157;50.082;18.178;2022-11-22T14:24:03;97997.43;;;3.16;83.74
76337;BME280;65157;50.082;18.178;2022-11-22T14:32:17;98001.80;;;2.99;84.09
76337;BME280;65157;50.082;18.178;2022-11-22T14:50:37;98005.35;;;3.03;83.58
76337;BME280;65157;50.082;18.178;2022-11-22T14:53:17;98008.10;;;3.04;83.49
76337;BME280;65157;50.082;18.178;2022-11-22T14:55:46;98009.98;;;3.05;83.39
76337;BME280;65157;50.082;18.178;2022-11-22T14:58:21;98009.59;;;3.07;83.53